Quincy, WA

8:53 AM PDT on October 02, 2014 (GMT -0700)
Winchester | Change Station
CLOSE
Current Station
Personal Weather Station
Location: Quincy, WA
Elevation: 1350 ft
Nearby Weather Stations

Elev 1350 ft 47.26 °N, 119.72 °W | Updated 2 minutes ago

Clear
Clear
57.0 °F
Feels Like 57.0 °F
N
1.0
Wind Variable Wind from SE
Gusts 8.0 mph

Today
High -- | Low -- °F
--% Chance of Precip.
Yesterday
High -- | Low -- °F
Precip. -- in
6:59 AM 6:36 PM
First Quarter, 60% visible
Pressure 30.22 in
Visibility 10.0 miles
Clouds Clear
Dew Point 36 °F
Humidity 45%
Rainfall -999.00 in
Snow Depth 0 in , 0 in , 0 in
UV 0 out of 12
Pollen 1.80 out of 12
Air Quality Not available.
Flu Activity Not available.
METAR KEPH 021453Z AUTO 35012KT 10SM CLR 13/M01 A3022 RMK AO2 SLP231 T01281006 53025

More Conditions Fewer Conditions

Pressure 30.22 in
Visibility 10.0 miles
Clouds Clear
Dew Point 36 °F
Humidity 45%
Rainfall -999.00 in
Snow Depth 0 in , 0 in , 0 in
UV 0 out of 12
Pollen 1.80 out of 12
Air Quality Not available.
Flu Activity Not available.
METAR KEPH 021453Z AUTO 35012KT 10SM CLR 13/M01 A3022 RMK AO2 SLP231 T01281006 53025

More Conditions Fewer Conditions

10-Day Weather Forecast

Almanac

Astronomy

Oct. 02, 2014 Rise Set
Actual Time 6:59 AM PDT 6:36 PM PDT
Civil Twilight 6:29 AM PDT 7:07 PM PDT
Nautical Twilight 5:54 AM PDT 7:42 PM PDT
Astronomical Twilight 5:17 AM PDT 8:18 PM PDT
Moon 3:07 PM PDT 12:00 AM PDT
Length of Visible Light 12h 37m
Length of Day
11h 36m
Tomorrow will be 3m 20s shorter.
First Quarter, 60% of the Moon is Illuminated
Today
First Quarter
Oct 8
Full
Oct 15
Last Quarter
Oct 23
New
Oct 30
First Quarter

Today's Extremes

State Highs State Lows

Community

WunderPhotos

Upload Photos

1,758,276 photos uploaded!

WunderBlogs® & News

Nearby

Snow Depth

Station Depth Elevation
Lost Horse 0 in 5000 ft
Bunchgrass Meadow 0 in 5000 ft
June Lake 0 in 3340 ft
Touchet 1 in 5530 ft
White Pass E.S. 0 in 4500 ft

Earthquake Activity

City Distance Mag. Time & Date
No recent earthquake activity has been reported nearby.
Minimum magnitude displayed is 2.5.

Coastal Water Temperatures

Place Temperature
No Stations Reporting

Nearby Weather Stations